This is the latest recevied weather packets stored in our database for station/object E22FEY-1. If no packets are shown the sender has not sent any weather packets the latest 10 day(s).
| Time | Temp. | Humidity | Pressure | Rain* | Wind** | Luminosity | Snow |
|---|---|---|---|---|---|---|---|
| 1777934020 | 27.78° C | 68% | 1009 hPa | - | - | 0 W/m² | - |
| 1777933096 | 27.22° C | 69% | 1009 hPa | - | - | 0 W/m² | - |
| 1777932172 | 26.67° C | 71% | 1009 hPa | - | - | 0 W/m² | - |
| 1777931248 | 27.22° C | 71% | 1009 hPa | - | - | 0 W/m² | - |
| 1777930324 | 27.22° C | 72% | 1009 hPa | - | - | 0 W/m² | - |
| 1777929399 | 26.67° C | 74% | 1009 hPa | - | - | 0 W/m² | - |
| 1777928473 | 27.22° C | 73% | 1009 hPa | - | - | 0 W/m² | - |
| 1777927549 | 27.22° C | 71% | 1009 hPa | - | - | 0 W/m² | - |
| 1777926625 | 26.67° C | 72% | 1009 hPa | - | - | 0 W/m² | - |
| 1777925700 | 27.78° C | 69% | 1009 hPa | - | - | 0 W/m² | - |
| 1777924776 | 28.33° C | 68% | 1009 hPa | - | - | 0 W/m² | - |
| 1777923851 | 28.33° C | 69% | 1009 hPa | - | - | 0 W/m² | - |
| 1777922927 | 28.33° C | 68% | 1009 hPa | - | - | 0 W/m² | - |
| 1777922003 | 28.33° C | 68% | 1009 hPa | - | - | 0 W/m² | - |
| 1777921079 | 28.33° C | 70% | 1009 hPa | - | - | 0 W/m² | - |
| 1777920152 | 27.78° C | 71% | 1010 hPa | - | - | 0 W/m² | - |
| 1777919228 | 26.67° C | 73% | 1010 hPa | - | - | 0 W/m² | - |
| 1777918305 | 26.11° C | 75% | 1010 hPa | - | - | 0 W/m² | - |
| 1777917381 | 26.67° C | 75% | 1011 hPa | - | - | 0 W/m² | - |
| 1777916457 | 25.56° C | 77% | 1011 hPa | - | - | 0 W/m² | - |
| 1777915532 | 26.67° C | 78% | 1011 hPa | - | - | 0 W/m² | - |
| 1777914608 | 26.11° C | 79% | 1011 hPa | - | - | 0 W/m² | - |
| 1777913684 | 27.78° C | 69% | 1011 hPa | - | - | 0 W/m² | - |
| 1777912760 | 30° C | 69% | 1011 hPa | - | - | 0 W/m² | - |
| 1777911835 | 31.67° C | 63% | 1010 hPa | - | - | 0 W/m² | - |
* Rain since midnight (hover to see other rain measurements)
** Current wind speed in m/s (hover to see current wind gust speed)